Time;durP1;ratioP1;P1;durP2;ratioP2;P2;SDS_P1;SDS_P2;PMS_P1;PMS_P2;Temp;Humidity;BMP_temperature;BMP_pressure;BME280_temperature;BME280_humidity;BME280_pressure;Samples;Min_cycle;Max_cycle;Signal;HPM_P1;HPM_P2
2024/02/10 00:00:57;;;;;;;1.93;1.20;;;9.90;99.90;;;;;;5053987;28;20552;-91
2024/02/10 00:03:23;;;;;;;0.60;0.60;;;9.90;99.90;;;;;;5020729;28;20202;-92
2024/02/10 00:05:48;;;;;;;2.03;1.83;;;10.00;99.90;;;;;;5037006;28;20541;-91
2024/02/10 00:08:14;;;;;;;1.47;1.37;;;9.80;99.90;;;;;;5020894;28;20186;-91
2024/02/10 00:10:41;;;;;;;0.93;0.87;;;9.80;99.90;;;;;;5036070;28;20319;-90
2024/02/10 00:13:07;;;;;;;0.83;0.60;;;9.90;99.90;;;;;;5053131;28;20683;-91
2024/02/10 00:15:33;;;;;;;0.83;0.83;;;9.80;99.90;;;;;;5054379;28;20348;-92
2024/02/10 00:17:59;;;;;;;1.53;1.43;;;9.90;99.90;;;;;;5036971;28;20221;-91
2024/02/10 00:20:25;;;;;;;1.87;1.70;;;9.80;99.90;;;;;;5011195;28;20177;-91
2024/02/10 00:22:52;;;;;;;1.10;1.10;;;9.90;99.90;;;;;;5053650;28;20170;-91
2024/02/10 00:25:21;;;;;;;1.10;0.83;;;9.80;99.90;;;;;;5053215;28;20210;-91
2024/02/10 00:27:47;;;;;;;1.73;1.37;;;9.80;99.90;;;;;;5036641;28;20732;-90
2024/02/10 00:30:13;;;;;;;1.87;1.60;;;9.80;99.90;;;;;;5036577;28;20210;-91
2024/02/10 00:32:40;;;;;;;1.57;1.47;;;9.60;99.90;;;;;;5052028;28;20261;-91
2024/02/10 00:35:07;;;;;;;2.30;1.97;;;9.70;99.90;;;;;;5037273;28;20174;-91
2024/02/10 00:37:32;;;;;;;2.33;1.07;;;9.60;99.90;;;;;;5036745;28;20221;-91
2024/02/10 00:40:00;;;;;;;2.13;1.20;;;9.60;99.90;;;;;;5020056;28;20269;-93
2024/02/10 00:42:28;;;;;;;1.20;1.00;;;9.50;99.90;;;;;;5036349;28;20206;-90
2024/02/10 00:44:59;;;;;;;4.20;1.83;;;9.40;99.90;;;;;;5020190;28;20256;-91
2024/02/10 00:47:28;;;;;;;1.07;0.87;;;9.30;99.90;;;;;;5036885;28;20523;-91
2024/02/10 00:49:57;;;;;;;0.70;0.70;;;9.30;99.90;;;;;;5037219;28;20193;-91
2024/02/10 00:52:23;;;;;;;0.57;0.57;;;9.30;99.90;;;;;;5051352;28;20282;-91
2024/02/10 00:54:49;;;;;;;2.73;1.13;;;9.30;99.90;;;;;;5036250;28;20237;-92
2024/02/10 00:57:15;;;;;;;2.77;1.90;;;9.30;99.90;;;;;;5035957;28;20681;-90
2024/02/10 00:59:41;;;;;;;0.77;0.70;;;9.30;99.90;;;;;;5020445;28;20552;-90
2024/02/10 01:02:17;;;;;;;3.03;1.27;;;9.40;99.90;;;;;;5037006;28;20554;-90
2024/02/10 01:04:44;;;;;;;2.97;1.23;;;9.50;99.90;;;;;;5036198;28;20218;-90
2024/02/10 01:07:12;;;;;;;1.13;1.03;;;9.40;99.90;;;;;;5035813;28;20221;-91
2024/02/10 01:09:38;;;;;;;1.47;1.37;;;9.40;99.90;;;;;;5050877;28;20298;-91
2024/02/10 01:12:05;;;;;;;3.73;2.13;;;9.50;99.90;;;;;;5036111;28;20214;-91
2024/02/10 01:14:32;;;;;;;2.33;1.53;;;9.60;99.90;;;;;;5052079;28;20182;-91
2024/02/10 01:16:58;;;;;;;0.93;0.93;;;9.40;99.90;;;;;;5052846;28;20202;-90
2024/02/10 01:19:28;;;;;;;0.87;0.70;;;9.60;99.90;;;;;;5035834;28;20211;-90
2024/02/10 01:21:57;;;;;;;0.70;0.70;;;9.50;99.90;;;;;;5052101;28;20312;-91
2024/02/10 01:24:28;;;;;;;1.23;1.23;;;9.50;99.90;;;;;;5035750;28;20232;-91
2024/02/10 01:26:54;;;;;;;1.77;1.50;;;9.50;99.90;;;;;;5036622;28;20213;-91
2024/02/10 01:29:20;;;;;;;2.00;1.03;;;9.60;99.90;;;;;;5053163;28;20265;-90
2024/02/10 01:31:50;;;;;;;1.40;1.13;;;9.60;99.90;;;;;;5052346;28;20236;-91
2024/02/10 01:34:17;;;;;;;1.57;1.00;;;9.70;99.90;;;;;;5036103;28;20587;-90
2024/02/10 01:36:44;;;;;;;2.37;2.17;;;9.60;99.90;;;;;;5035514;28;20222;-92
2024/02/10 01:39:10;;;;;;;1.97;1.87;;;9.60;99.90;;;;;;5019298;28;20264;-90
2024/02/10 01:41:35;;;;;;;1.33;1.17;;;9.80;99.90;;;;;;5019115;28;20170;-89
2024/02/10 01:44:01;;;;;;;1.00;1.00;;;9.70;99.90;;;;;;5035945;28;20562;-91
2024/02/10 01:46:27;;;;;;;2.17;1.83;;;9.80;99.90;;;;;;5052322;28;20555;-92
2024/02/10 01:48:55;;;;;;;0.83;0.83;;;9.70;99.90;;;;;;5035151;28;20693;-90
2024/02/10 01:51:23;;;;;;;2.73;1.73;;;9.70;99.90;;;;;;5051769;28;20212;-91
2024/02/10 01:53:51;;;;;;;1.67;1.57;;;9.80;99.90;;;;;;5035227;28;20542;-90
2024/02/10 01:56:18;;;;;;;1.63;1.53;;;9.80;99.90;;;;;;5035891;28;20182;-91
2024/02/10 01:58:48;;;;;;;0.70;0.70;;;9.70;99.90;;;;;;5035287;28;20640;-90
2024/02/10 02:01:15;;;;;;;6.30;1.73;;;9.80;99.90;;;;;;5034979;28;20289;-89
2024/02/10 02:03:44;;;;;;;2.03;1.83;;;9.60;99.90;;;;;;5034963;28;20214;-91
2024/02/10 02:06:11;;;;;;;1.43;1.33;;;9.70;99.90;;;;;;5051824;28;20213;-92
2024/02/10 02:08:38;;;;;;;3.27;1.73;;;9.60;99.90;;;;;;5034532;28;20214;-90
2024/02/10 02:11:04;;;;;;;1.07;1.07;;;9.60;99.90;;;;;;5051763;28;20218;-90
2024/02/10 02:13:31;;;;;;;3.30;1.47;;;9.60;99.90;;;;;;5034963;28;20217;-90
2024/02/10 02:16:00;;;;;;;2.23;1.67;;;9.50;99.90;;;;;;5034755;28;20233;-90
2024/02/10 02:18:26;;;;;;;1.93;1.10;;;9.50;99.90;;;;;;5035020;28;20296;-91
2024/02/10 02:20:52;;;;;;;1.20;1.07;;;9.50;99.90;;;;;;5050727;28;20212;-93
2024/02/10 02:23:18;;;;;;;0.90;0.90;;;9.60;99.90;;;;;;5052602;28;20238;-91
2024/02/10 02:25:48;;;;;;;1.40;1.33;;;9.50;99.90;;;;;;5051223;28;20223;-92
2024/02/10 02:28:15;;;;;;;2.10;1.37;;;9.60;99.90;;;;;;5051400;28;20237;-91
2024/02/10 02:30:41;;;;;;;3.00;1.60;;;9.50;99.90;;;;;;5034615;28;20225;-90
2024/02/10 02:33:10;;;;;;;1.80;1.20;;;9.50;99.90;;;;;;5033468;28;20218;-91
2024/02/10 02:35:40;;;;;;;3.97;1.23;;;9.50;99.90;;;;;;5039278;28;20174;-91
2024/02/10 02:38:06;;;;;;;1.53;1.37;;;9.40;99.90;;;;;;5055734;28;20202;-91
2024/02/10 02:40:33;;;;;;;1.67;1.57;;;9.60;99.90;;;;;;5038506;28;20313;-90
2024/02/10 02:43:02;;;;;;;1.83;1.37;;;9.50;99.90;;;;;;5038619;28;20214;-91
2024/02/10 02:45:32;;;;;;;1.53;1.43;;;9.40;99.90;;;;;;5056295;28;20249;-91
2024/02/10 02:48:06;;;;;;;1.57;1.47;;;9.40;99.90;;;;;;5055022;28;20262;-92
2024/02/10 02:50:34;;;;;;;1.30;1.30;;;9.50;99.90;;;;;;5055207;28;20180;-91
2024/02/10 02:53:03;;;;;;;1.60;1.40;;;9.30;99.90;;;;;;5039405;28;20273;-92
2024/02/10 02:55:30;;;;;;;1.93;1.33;;;9.40;99.90;;;;;;5038093;28;20214;-92
2024/02/10 02:58:01;;;;;;;2.63;2.13;;;9.20;99.90;;;;;;5037692;28;20229;-90
2024/02/10 03:00:29;;;;;;;1.83;1.73;;;9.30;99.90;;;;;;5056153;28;20220;-90
2024/02/10 03:02:56;;;;;;;1.40;1.30;;;9.10;99.90;;;;;;5054566;28;20218;-91
2024/02/10 03:05:22;;;;;;;2.30;2.10;;;9.30;99.90;;;;;;5021718;28;20193;-92
2024/02/10 03:07:48;;;;;;;1.77;1.67;;;9.20;99.90;;;;;;5038520;28;20178;-91
2024/02/10 03:10:15;;;;;;;2.13;1.93;;;9.30;99.90;;;;;;5054348;28;20586;-90
2024/02/10 03:12:41;;;;;;;5.17;2.50;;;9.00;99.90;;;;;;5037898;28;20249;-92
2024/02/10 03:15:09;;;;;;;5.23;2.60;;;9.10;99.90;;;;;;5038508;28;20210;-90
2024/02/10 03:17:39;;;;;;;0.70;0.70;;;9.00;99.90;;;;;;5037920;28;20590;-90
2024/02/10 03:20:05;;;;;;;4.10;1.87;;;9.00;99.90;;;;;;5021768;28;20181;-91
2024/02/10 03:22:32;;;;;;;3.70;1.97;;;9.20;99.90;;;;;;5038627;28;20209;-90
2024/02/10 03:24:58;;;;;;;2.23;2.03;;;9.20;99.90;;;;;;5053175;28;20222;-90
2024/02/10 03:27:24;;;;;;;1.43;1.33;;;9.20;99.90;;;;;;5037800;28;20296;-91
2024/02/10 03:29:50;;;;;;;5.10;2.93;;;9.00;99.90;;;;;;5021255;28;20234;-91
2024/02/10 03:32:16;;;;;;;1.43;1.33;;;9.10;99.90;;;;;;5038251;28;20227;-91
2024/02/10 03:34:43;;;;;;;2.97;1.03;;;9.00;99.90;;;;;;5054573;28;20316;-91
2024/02/10 03:37:12;;;;;;;1.77;1.67;;;8.90;99.90;;;;;;5054012;28;20230;-91
2024/02/10 03:39:38;;;;;;;1.53;1.43;;;8.90;99.90;;;;;;5053859;28;20289;-90
2024/02/10 03:42:05;;;;;;;4.60;3.07;;;9.00;99.90;;;;;;5054015;28;20214;-93
2024/02/10 03:44:31;;;;;;;0.80;0.80;;;8.80;99.90;;;;;;5054183;28;20178;-92
2024/02/10 03:47:00;;;;;;;2.63;1.30;;;9.00;99.90;;;;;;5021496;28;20217;-90
2024/02/10 03:49:29;;;;;;;8.90;1.90;;;9.00;99.90;;;;;;5054098;28;20705;-91
2024/02/10 03:51:55;;;;;;;1.73;1.63;;;8.90;99.90;;;;;;5053773;28;20213;-90
2024/02/10 03:54:22;;;;;;;2.90;1.40;;;9.00;99.90;;;;;;5053844;28;20210;-91
2024/02/10 03:56:51;;;;;;;7.53;1.27;;;8.90;99.90;;;;;;5037277;28;20230;-92
2024/02/10 03:59:17;;;;;;;0.80;0.80;;;8.90;99.90;;;;;;5055170;28;20646;-90
2024/02/10 04:01:44;;;;;;;0.83;0.80;;;8.90;99.90;;;;;;5037090;28;20214;-92
2024/02/10 04:04:10;;;;;;;0.83;0.83;;;9.00;99.90;;;;;;5036995;28;20210;-92
2024/02/10 04:06:37;;;;;;;0.70;0.70;;;9.00;99.90;;;;;;5053709;28;20214;-92
2024/02/10 04:09:06;;;;;;;3.90;2.03;;;9.00;99.90;;;;;;5036750;28;20212;-91
2024/02/10 04:11:33;;;;;;;1.37;1.27;;;9.10;99.90;;;;;;5021538;28;20181;-91
2024/02/10 04:14:00;;;;;;;0.97;0.97;;;8.90;99.90;;;;;;5021131;28;20186;-92
2024/02/10 04:16:26;;;;;;;1.70;1.47;;;9.10;99.90;;;;;;5036901;28;20214;-92
2024/02/10 04:18:53;;;;;;;1.77;1.40;;;8.90;99.90;;;;;;5053227;28;20214;-92
2024/02/10 04:21:20;;;;;;;2.20;2.03;;;9.00;99.90;;;;;;5036561;28;20220;-90
2024/02/10 04:23:46;;;;;;;1.37;1.30;;;9.00;99.90;;;;;;5052746;28;20221;-91
2024/02/10 04:26:12;;;;;;;1.80;1.60;;;8.90;99.90;;;;;;5020313;28;20185;-91
2024/02/10 04:28:38;;;;;;;1.43;0.93;;;9.00;99.90;;;;;;5052918;28;20237;-93
2024/02/10 04:31:04;;;;;;;3.03;1.87;;;8.90;99.90;;;;;;5036760;28;20292;-90
2024/02/10 04:33:30;;;;;;;1.63;1.53;;;9.00;99.90;;;;;;5020185;28;20671;-92
2024/02/10 04:35:56;;;;;;;1.53;1.43;;;8.90;99.90;;;;;;5054207;28;20210;-93
2024/02/10 04:38:23;;;;;;;1.73;1.47;;;8.90;99.90;;;;;;5050445;28;20217;-91
2024/02/10 04:40:50;;;;;;;1.80;1.67;;;9.10;99.90;;;;;;5037263;28;20260;-91
2024/02/10 04:43:19;;;;;;;1.00;1.00;;;9.10;99.90;;;;;;5035893;28;20543;-93
2024/02/10 04:45:48;;;;;;;1.77;1.67;;;9.00;99.90;;;;;;5053093;28;20243;-93
2024/02/10 04:48:17;;;;;;;2.03;1.93;;;9.00;99.90;;;;;;5052761;28;20210;-91
2024/02/10 04:50:43;;;;;;;1.20;1.20;;;9.00;99.90;;;;;;5036564;28;20213;-91
2024/02/10 04:53:11;;;;;;;1.03;1.03;;;9.20;99.90;;;;;;5053260;28;20170;-92
2024/02/10 04:55:41;;;;;;;1.97;1.47;;;8.90;99.90;;;;;;5052763;28;20597;-90
2024/02/10 04:58:07;;;;;;;1.00;0.67;;;9.00;99.90;;;;;;5051901;28;20233;-90
2024/02/10 05:00:32;;;;;;;1.97;1.17;;;9.10;99.90;;;;;;5036132;28;20686;-93
2024/02/10 05:03:02;;;;;;;4.13;1.17;;;9.10;99.90;;;;;;5052739;28;20222;-92
2024/02/10 05:05:29;;;;;;;3.80;2.50;;;9.20;99.90;;;;;;5036057;28;20180;-91
2024/02/10 05:07:56;;;;;;;4.80;2.23;;;9.10;99.90;;;;;;5052679;28;20204;-93
2024/02/10 05:10:23;;;;;;;1.43;1.43;;;9.10;99.90;;;;;;5019397;28;20234;-92
2024/02/10 05:12:50;;;;;;;1.13;1.00;;;9.20;99.90;;;;;;5036046;28;20214;-90
2024/02/10 05:15:22;;;;;;;2.37;1.30;;;9.00;99.90;;;;;;5052201;28;20241;-91
2024/02/10 05:17:50;;;;;;;1.03;0.90;;;8.90;99.90;;;;;;5052631;28;20213;-91
2024/02/10 05:20:24;;;;;;;2.00;1.90;;;9.20;99.90;;;;;;5052943;28;20180;-92
2024/02/10 05:22:50;;;;;;;1.20;1.10;;;9.10;99.90;;;;;;5052728;28;20204;-92
2024/02/10 05:25:20;;;;;;;2.43;1.40;;;9.10;99.90;;;;;;5035519;28;20228;-90
2024/02/10 05:27:48;;;;;;;1.53;1.43;;;9.20;99.90;;;;;;5035920;28;20258;-91
2024/02/10 05:30:20;;;;;;;1.77;1.67;;;9.30;99.90;;;;;;5035539;28;20214;-90
2024/02/10 05:32:47;;;;;;;1.70;1.60;;;9.00;99.90;;;;;;5036067;28;20290;-91
2024/02/10 05:35:20;;;;;;;2.47;2.27;;;8.90;99.90;;;;;;5036107;28;20177;-92
2024/02/10 05:37:54;;;;;;;1.27;1.17;;;9.10;99.90;;;;;;5052406;28;20232;-90
2024/02/10 05:40:24;;;;;;;1.93;1.83;;;8.90;99.90;;;;;;5052656;28;20219;-92
2024/02/10 05:42:51;;;;;;;0.67;0.67;;;9.00;99.90;;;;;;5051475;28;20710;-91
2024/02/10 05:45:18;;;;;;;1.63;1.53;;;9.00;99.90;;;;;;5035289;28;20205;-91
2024/02/10 05:47:51;;;;;;;1.30;0.70;;;9.10;99.90;;;;;;5051561;28;20218;-91
2024/02/10 05:50:24;;;;;;;1.97;1.87;;;9.00;99.90;;;;;;5036091;28;20276;-92
2024/02/10 05:52:57;;;;;;;4.07;1.73;;;8.90;99.90;;;;;;5051685;28;20186;-92
2024/02/10 05:55:27;;;;;;;1.43;0.90;;;8.80;99.90;;;;;;5052085;28;20209;-91
2024/02/10 05:58:01;;;;;;;2.73;2.30;;;8.90;99.90;;;;;;5051660;28;20229;-93
2024/02/10 06:00:28;;;;;;;2.13;1.90;;;8.90;99.90;;;;;;5051436;28;20304;-91
2024/02/10 06:02:54;;;;;;;1.80;1.43;;;8.60;99.90;;;;;;5034764;28;20205;-91
2024/02/10 06:05:20;;;;;;;2.57;0.97;;;8.60;99.90;;;;;;5052125;28;20182;-91
2024/02/10 06:07:48;;;;;;;0.70;0.70;;;8.90;99.90;;;;;;5035491;28;20217;-92
2024/02/10 06:10:14;;;;;;;1.87;1.63;;;8.50;99.90;;;;;;5050778;28;20238;-91
2024/02/10 06:12:41;;;;;;;4.70;1.93;;;8.70;99.90;;;;;;5052476;28;20267;-91
2024/02/10 06:15:11;;;;;;;3.77;3.53;;;8.90;99.90;;;;;;5052088;28;20655;-93
2024/02/10 06:17:41;;;;;;;0.70;0.63;;;8.90;99.90;;;;;;5035408;28;20560;-92
2024/02/10 06:20:12;;;;;;;2.30;0.63;;;8.80;99.90;;;;;;5035241;28;20223;-90
2024/02/10 06:22:38;;;;;;;1.83;1.73;;;9.10;99.90;;;;;;5035708;28;20213;-91
2024/02/10 06:25:04;;;;;;;4.10;2.10;;;9.10;99.90;;;;;;5034543;28;20240;-92
2024/02/10 06:27:34;;;;;;;1.67;0.83;;;9.10;99.90;;;;;;5051536;28;20218;-92
2024/02/10 06:30:01;;;;;;;3.33;2.00;;;9.20;99.90;;;;;;5050700;28;20635;-90
2024/02/10 06:32:26;;;;;;;3.60;3.23;;;9.10;99.90;;;;;;5050333;28;20229;-91
2024/02/10 06:34:52;;;;;;;2.20;2.00;;;9.00;99.90;;;;;;5052037;28;20232;-93
2024/02/10 06:37:25;;;;;;;3.07;1.57;;;9.00;99.90;;;;;;5034574;28;20234;-91
2024/02/10 06:39:51;;;;;;;1.33;1.23;;;9.00;99.90;;;;;;5020620;28;20662;-91
2024/02/10 06:42:17;;;;;;;1.90;1.50;;;9.20;99.90;;;;;;5051359;28;20273;-90
2024/02/10 06:44:43;;;;;;;2.10;1.17;;;9.00;99.90;;;;;;5034880;28;20210;-92
2024/02/10 06:47:09;;;;;;;2.30;1.20;;;9.20;99.90;;;;;;5034916;28;20186;-92
2024/02/10 06:49:38;;;;;;;1.47;1.37;;;9.20;99.90;;;;;;5051190;28;20336;-93
2024/02/10 06:52:05;;;;;;;1.20;1.17;;;9.10;99.90;;;;;;5034508;28;20213;-92
2024/02/10 06:54:30;;;;;;;1.97;1.77;;;9.30;99.90;;;;;;5028441;28;20209;-92
2024/02/10 06:56:57;;;;;;;1.33;1.23;;;9.30;99.90;;;;;;5034325;28;20728;-91
2024/02/10 06:59:25;;;;;;;2.13;2.03;;;9.10;99.90;;;;;;5034039;28;20174;-92
2024/02/10 07:01:54;;;;;;;2.80;1.30;;;9.10;99.90;;;;;;5051269;28;20188;-91
2024/02/10 07:04:22;;;;;;;2.60;1.70;;;9.10;99.90;;;;;;5051769;28;20206;-91
2024/02/10 07:06:53;;;;;;;1.83;1.73;;;9.00;99.90;;;;;;5017798;28;20245;-92
2024/02/10 07:09:22;;;;;;;1.77;1.67;;;9.00;99.90;;;;;;5050888;28;20236;-92
2024/02/10 07:11:49;;;;;;;1.87;1.77;;;9.20;99.90;;;;;;5034621;28;20210;-92
2024/02/10 07:14:20;;;;;;;0.87;0.87;;;9.20;99.90;;;;;;5051325;28;20228;-93
2024/02/10 07:16:46;;;;;;;2.40;1.43;;;9.20;99.90;;;;;;5018384;28;20218;-90
2024/02/10 07:19:16;;;;;;;1.20;1.20;;;9.20;99.90;;;;;;5017672;28;20210;-93
2024/02/10 07:21:45;;;;;;;1.73;1.13;;;9.10;99.90;;;;;;5020190;28;20218;-90
2024/02/10 07:24:13;;;;;;;2.00;0.93;;;9.40;99.90;;;;;;5021611;28;20217;-90
2024/02/10 07:26:39;;;;;;;2.47;1.87;;;9.30;99.90;;;;;;5054612;28;20174;-91
2024/02/10 07:29:05;;;;;;;2.27;1.37;;;9.30;99.90;;;;;;5054811;28;20188;-93
2024/02/10 07:31:33;;;;;;;1.80;1.70;;;9.30;99.90;;;;;;5037616;28;20269;-95
2024/02/10 07:34:01;;;;;;;3.93;2.43;;;9.30;99.90;;;;;;5054434;28;20220;-90
2024/02/10 07:36:35;;;;;;;2.37;2.23;;;9.60;99.90;;;;;;5037395;28;20218;-90
2024/02/10 07:39:06;;;;;;;2.47;1.77;;;9.30;99.90;;;;;;5055549;28;20312;-90
2024/02/10 07:41:34;;;;;;;2.73;1.27;;;9.50;99.90;;;;;;5053467;28;20170;-90
2024/02/10 07:44:02;;;;;;;1.10;1.10;;;9.40;99.90;;;;;;5054555;28;20168;-90
2024/02/10 07:46:32;;;;;;;2.23;2.13;;;9.50;99.90;;;;;;5014570;28;20208;-90
2024/02/10 07:49:01;;;;;;;2.10;1.73;;;9.60;99.90;;;;;;5021652;28;20221;-89
2024/02/10 07:51:29;;;;;;;1.40;1.30;;;9.40;99.90;;;;;;5037503;28;20631;-92
2024/02/10 07:53:56;;;;;;;3.90;2.07;;;9.40;99.90;;;;;;5020212;28;20562;-94
2024/02/10 07:56:22;;;;;;;1.23;1.20;;;9.70;99.90;;;;;;5038229;28;20174;-95
2024/02/10 07:58:48;;;;;;;2.83;1.80;;;9.60;99.90;;;;;;5053910;28;20319;-95
2024/02/10 08:01:17;;;;;;;1.47;1.43;;;9.60;99.90;;;;;;5036930;28;20659;-94
2024/02/10 08:03:44;;;;;;;3.63;2.33;;;9.60;99.90;;;;;;5037368;28;20617;-95
2024/02/10 08:06:13;;;;;;;2.50;1.30;;;9.80;99.90;;;;;;5053697;28;20210;-94
2024/02/10 08:08:39;;;;;;;1.83;1.70;;;9.90;99.90;;;;;;5034958;28;20185;-95
2024/02/10 08:11:06;;;;;;;3.10;2.67;;;9.90;99.90;;;;;;5037704;28;20260;-95
2024/02/10 08:13:32;;;;;;;5.97;2.47;;;10.10;99.90;;;;;;5035624;28;20240;-95
2024/02/10 08:16:00;;;;;;;0.80;0.80;;;9.90;99.90;;;;;;5053201;28;20261;-94
2024/02/10 08:18:26;;;;;;;2.27;2.10;;;10.20;99.90;;;;;;5053206;28;20264;-95
2024/02/10 08:20:53;;;;;;;3.27;2.10;;;10.80;99.90;;;;;;5035193;28;20254;-94
2024/02/10 08:23:19;;;;;;;1.83;1.73;;;10.60;99.90;;;;;;5034915;28;20640;-95
2024/02/10 08:25:49;;;;;;;2.23;2.03;;;10.40;99.90;;;;;;5036530;28;20241;-94
2024/02/10 08:28:14;;;;;;;4.07;2.13;;;10.30;99.90;;;;;;5052970;28;20217;-94
2024/02/10 08:30:43;;;;;;;1.30;1.30;;;10.20;99.90;;;;;;5052761;28;20225;-94
2024/02/10 08:33:09;;;;;;;1.63;1.53;;;10.60;99.90;;;;;;5035947;28;20214;-95
2024/02/10 08:35:36;;;;;;;2.07;1.67;;;11.00;99.90;;;;;;5019486;28;20192;-93
2024/02/10 08:38:05;;;;;;;2.87;1.73;;;11.20;99.90;;;;;;5020867;28;20315;-93
2024/02/10 08:40:30;;;;;;;0.90;0.80;;;11.50;99.90;;;;;;5035355;28;20312;-93
2024/02/10 08:42:59;;;;;;;1.50;1.17;;;11.50;99.90;;;;;;5035595;28;20709;-93
2024/02/10 08:45:25;;;;;;;1.50;1.40;;;11.20;99.90;;;;;;5019950;28;20225;-92
2024/02/10 08:47:51;;;;;;;2.13;1.67;;;11.10;99.90;;;;;;5036017;28;20214;-95
2024/02/10 08:50:18;;;;;;;2.00;1.80;;;11.00;99.90;;;;;;5036559;28;20185;-93
2024/02/10 08:52:47;;;;;;;2.77;2.57;;;10.90;99.90;;;;;;5019442;28;20226;-92
2024/02/10 08:55:15;;;;;;;4.50;2.60;;;10.80;99.90;;;;;;5051768;28;20295;-89
2024/02/10 08:57:41;;;;;;;3.60;2.13;;;10.60;99.90;;;;;;5053120;28;20234;-88
2024/02/10 09:00:08;;;;;;;2.43;1.47;;;10.60;99.90;;;;;;5034904;28;20218;-86
2024/02/10 09:02:34;;;;;;;2.63;1.13;;;10.60;99.90;;;;;;5018357;28;20190;-87
2024/02/10 09:05:03;;;;;;;2.23;1.63;;;10.40;99.90;;;;;;5019275;28;20581;-88
2024/02/10 09:07:29;;;;;;;1.07;1.07;;;10.50;99.90;;;;;;5035444;28;20625;-87
2024/02/10 09:09:56;;;;;;;1.57;1.47;;;10.30;99.90;;;;;;5017663;28;20265;-86
2024/02/10 09:12:22;;;;;;;3.90;2.43;;;10.40;99.90;;;;;;5018159;28;20225;-88
2024/02/10 09:14:48;;;;;;;1.33;1.23;;;10.50;99.90;;;;;;5018079;28;20595;-87
2024/02/10 09:17:14;;;;;;;5.27;3.73;;;10.40;99.90;;;;;;5018094;28;20249;-88
2024/02/10 09:19:41;;;;;;;6.17;1.90;;;10.60;99.90;;;;;;5017743;28;20224;-86
2024/02/10 09:22:07;;;;;;;5.67;2.80;;;10.60;99.90;;;;;;5018195;28;20230;-86
2024/02/10 09:24:33;;;;;;;2.80;2.33;;;10.50;99.90;;;;;;5017861;28;20664;-88
2024/02/10 09:26:59;;;;;;;2.13;1.53;;;10.60;99.90;;;;;;5033947;28;20657;-85
2024/02/10 09:29:26;;;;;;;1.87;1.77;;;10.40;99.90;;;;;;5017795;28;20231;-86
2024/02/10 09:31:52;;;;;;;3.90;1.53;;;10.60;99.90;;;;;;5018437;28;20178;-85
2024/02/10 09:34:20;;;;;;;3.30;2.87;;;10.40;99.90;;;;;;5034106;28;20229;-86
2024/02/10 09:36:47;;;;;;;2.17;1.70;;;10.60;99.90;;;;;;5034071;28;20266;-89
2024/02/10 09:39:13;;;;;;;2.30;2.10;;;10.70;99.90;;;;;;5051816;28;20229;-88
2024/02/10 09:41:40;;;;;;;1.97;1.23;;;10.90;99.90;;;;;;5050872;28;20190;-91
2024/02/10 09:44:09;;;;;;;2.83;1.93;;;10.70;99.90;;;;;;5051850;28;20178;-86
2024/02/10 09:46:36;;;;;;;2.60;2.40;;;10.70;99.90;;;;;;5051602;28;20260;-86
2024/02/10 09:49:07;;;;;;;2.23;2.03;;;10.70;99.90;;;;;;5033294;28;20293;-88
2024/02/10 09:51:39;;;;;;;4.67;2.47;;;10.70;99.90;;;;;;5034991;28;20210;-88
2024/02/10 09:54:13;;;;;;;4.40;2.13;;;10.50;99.90;;;;;;5033850;28;20225;-88
2024/02/10 09:56:39;;;;;;;3.77;2.80;;;10.70;99.90;;;;;;5050158;28;20189;-87
2024/02/10 09:59:22;;;;;;;2.83;2.53;;;10.60;99.90;;;;;;5034374;28;20201;-85
2024/02/10 10:01:49;;;;;;;4.50;3.70;;;10.70;99.90;;;;;;5050915;28;20647;-88
2024/02/10 10:04:16;;;;;;;4.37;1.87;;;10.80;99.90;;;;;;5050366;28;20221;-85
2024/02/10 10:06:45;;;;;;;3.83;3.43;;;10.80;99.90;;;;;;5033501;28;20231;-88
2024/02/10 10:09:15;;;;;;;7.23;3.87;;;10.80;99.90;;;;;;5033295;28;20691;-86
2024/02/10 10:11:42;;;;;;;3.97;2.27;;;11.10;99.90;;;;;;5049680;28;20725;-86
2024/02/10 10:14:08;;;;;;;2.63;2.40;;;11.20;99.90;;;;;;5034047;28;20189;-87
2024/02/10 10:16:34;;;;;;;2.70;2.30;;;11.40;99.90;;;;;;5049635;28;20587;-86
2024/02/10 10:19:00;;;;;;;4.27;3.10;;;11.60;99.90;;;;;;5049942;28;20324;-87
2024/02/10 10:21:33;;;;;;;4.13;2.10;;;11.80;99.90;;;;;;5049782;28;20628;-89
2024/02/10 10:24:00;;;;;;;3.07;2.87;;;11.70;99.90;;;;;;5033527;28;20210;-87
2024/02/10 10:26:26;;;;;;;3.70;2.73;;;11.70;99.90;;;;;;5033527;28;20182;-86
2024/02/10 10:28:52;;;;;;;3.13;2.93;;;11.50;99.90;;;;;;5017332;28;20243;-89
2024/02/10 10:31:18;;;;;;;3.10;2.47;;;11.60;99.90;;;;;;5033813;28;20221;-90
2024/02/10 10:33:49;;;;;;;5.27;3.50;;;11.70;99.90;;;;;;5033308;28;20297;-87
2024/02/10 10:36:16;;;;;;;2.03;1.93;;;11.90;99.90;;;;;;5051320;28;20214;-86
2024/02/10 10:38:44;;;;;;;4.47;3.50;;;11.70;99.90;;;;;;5049471;28;20234;-90
2024/02/10 10:41:13;;;;;;;4.77;3.10;;;11.70;99.90;;;;;;5034025;28;20305;-87
2024/02/10 10:43:43;;;;;;;4.20;3.47;;;11.60;99.90;;;;;;5049803;28;20222;-86
2024/02/10 10:46:19;;;;;;;2.60;2.40;;;11.70;99.90;;;;;;5033171;28;20229;-86
2024/02/10 10:48:48;;;;;;;1.33;1.23;;;11.60;99.90;;;;;;5049736;28;20277;-87
2024/02/10 10:51:16;;;;;;;1.77;1.30;;;11.70;99.90;;;;;;5049564;28;20238;-87
2024/02/10 10:53:49;;;;;;;2.60;2.37;;;11.60;99.90;;;;;;5050885;28;20241;-88
2024/02/10 10:56:23;;;;;;;3.00;2.73;;;11.80;99.90;;;;;;5057867;28;20174;-88
2024/02/10 10:59:09;;;;;;;2.27;2.00;;;11.80;99.90;;;;;;5060232;28;20225;-89
2024/02/10 11:01:38;;;;;;;2.70;2.47;;;11.80;99.90;;;;;;5057521;28;20277;-90
2024/02/10 11:04:04;;;;;;;3.47;3.20;;;11.90;99.90;;;;;;5059079;28;20293;-89
2024/02/10 11:06:33;;;;;;;3.87;3.40;;;11.90;99.90;;;;;;5059477;28;20594;-91
2024/02/10 11:09:04;;;;;;;2.57;2.30;;;12.10;99.90;;;;;;5058542;28;20304;-88
2024/02/10 11:11:36;;;;;;;4.77;3.60;;;12.10;99.90;;;;;;5053004;28;20174;-89
2024/02/10 11:14:18;;;;;;;3.33;2.23;;;12.20;99.90;;;;;;5058334;28;20628;-89
2024/02/10 11:16:45;;;;;;;4.90;2.73;;;12.20;99.90;;;;;;5057674;28;20679;-88
2024/02/10 11:19:12;;;;;;;3.37;3.10;;;12.20;99.90;;;;;;5041082;28;20210;-90
2024/02/10 11:21:40;;;;;;;5.33;2.53;;;12.30;99.90;;;;;;5054825;28;20225;-90
2024/02/10 11:24:14;;;;;;;3.47;2.50;;;12.40;99.90;;;;;;5022415;28;20290;-89
2024/02/10 11:26:44;;;;;;;3.03;2.80;;;12.40;99.90;;;;;;5056764;28;20174;-88
2024/02/10 11:29:18;;;;;;;3.13;2.93;;;12.50;99.90;;;;;;5059406;28;20563;-90
2024/02/10 11:31:51;;;;;;;4.87;3.33;;;12.50;99.90;;;;;;5064679;28;20675;-88
2024/02/10 11:34:19;;;;;;;2.87;2.37;;;12.60;99.90;;;;;;5056537;28;20222;-87
2024/02/10 11:36:54;;;;;;;3.33;2.13;;;12.40;99.90;;;;;;5040472;28;20218;-86
2024/02/10 11:39:23;;;;;;;4.97;3.57;;;12.30;99.90;;;;;;5057123;28;20214;-87
2024/02/10 11:42:11;;;;;;;5.93;2.13;;;12.30;99.90;;;;;;5055326;28;20554;-88
2024/02/10 11:44:37;;;;;;;3.83;2.30;;;12.20;99.90;;;;;;5039579;28;20636;-88
2024/02/10 11:47:04;;;;;;;5.63;4.33;;;12.20;99.90;;;;;;5024661;28;20201;-90
2024/02/10 11:49:31;;;;;;;3.93;2.63;;;12.30;99.90;;;;;;5039447;28;20218;-88
2024/02/10 11:52:01;;;;;;;2.83;2.57;;;12.30;99.90;;;;;;5042418;28;20301;-90
2024/02/10 11:54:28;;;;;;;5.77;3.57;;;12.30;99.90;;;;;;5064727;28;20281;-89
2024/02/10 11:56:55;;;;;;;4.60;3.13;;;12.30;99.90;;;;;;5064125;28;20300;-90
2024/02/10 11:59:21;;;;;;;3.27;2.90;;;12.30;99.90;;;;;;5050488;28;20174;-88
2024/02/10 12:01:51;;;;;;;5.07;3.43;;;12.40;99.90;;;;;;5067495;28;20206;-87
2024/02/10 12:04:18;;;;;;;4.93;1.57;;;12.30;99.90;;;;;;5051337;28;20308;-87
2024/02/10 12:06:50;;;;;;;2.83;1.93;;;12.30;99.90;;;;;;5063377;28;20218;-88
2024/02/10 12:09:18;;;;;;;3.27;2.30;;;12.50;99.90;;;;;;5062994;28;20679;-89
2024/02/10 12:11:46;;;;;;;4.80;3.97;;;12.40;99.90;;;;;;5066974;28;20265;-86
2024/02/10 12:14:15;;;;;;;3.60;2.77;;;12.50;99.90;;;;;;5063576;28;20185;-87
2024/02/10 12:16:44;;;;;;;5.60;2.53;;;12.40;99.90;;;;;;5059324;28;20222;-86
2024/02/10 12:19:11;;;;;;;3.73;3.27;;;12.30;99.90;;;;;;5058798;28;20571;-88
2024/02/10 12:21:40;;;;;;;2.27;2.17;;;12.30;99.90;;;;;;5056875;28;20221;-89
2024/02/10 12:24:11;;;;;;;4.23;3.10;;;12.30;99.90;;;;;;5056626;28;20214;-88
2024/02/10 12:26:40;;;;;;;3.97;2.07;;;12.20;99.90;;;;;;5056322;28;20189;-89
2024/02/10 12:29:10;;;;;;;8.17;4.23;;;12.30;99.90;;;;;;5040742;28;20312;-89
2024/02/10 12:31:43;;;;;;;5.37;2.20;;;12.30;99.90;;;;;;5039029;28;20301;-91
2024/02/10 12:34:10;;;;;;;4.47;2.90;;;12.50;99.90;;;;;;5057976;28;20221;-91
2024/02/10 12:36:37;;;;;;;2.00;1.80;;;12.30;99.90;;;;;;5019028;28;20213;-89
2024/02/10 12:39:06;;;;;;;3.47;3.17;;;12.30;99.90;;;;;;5066378;28;20224;-87
2024/02/10 12:41:32;;;;;;;4.73;3.03;;;12.40;99.90;;;;;;5056783;28;20197;-88
2024/02/10 12:43:59;;;;;;;5.10;4.07;;;12.50;99.90;;;;;;5063990;28;20202;-90
2024/02/10 12:46:25;;;;;;;2.87;2.60;;;12.50;99.90;;;;;;5070995;28;20229;-89
2024/02/10 12:48:51;;;;;;;8.43;3.43;;;12.40;99.90;;;;;;5046280;28;20240;-88
2024/02/10 12:51:17;;;;;;;3.23;3.03;;;12.40;99.90;;;;;;5044287;28;20222;-90
2024/02/10 12:53:43;;;;;;;4.27;2.60;;;12.50;99.90;;;;;;5039259;28;20244;-87
2024/02/10 12:56:10;;;;;;;6.17;3.33;;;12.70;99.90;;;;;;5040668;28;20178;-86